West Point, Virginia
Current Conditions -  °F | °C
As of 6:15 AM on Wednesday 26 Nov 2014 (Local Time) from KFYJ Reporting Station
Overcast Overcast  
Wind Chill:   Ceiling: 1300
Heat Index:   Visibility: 5mi
Dew Point:   Wind: 10mph
Humidity: 90%   Direction: 30°NNE
Pressure: 30"   Gusts: 16mph
Location:  37.53°N, 76.8°W
Report Text: KFYJ 261115Z AUTO 03009G14KT 010V070 5SM SCT008 BKN013 OVC022 08/07 A3000 RMK AO2 P0003 T00800065
Loading
Personal Weather Stations






























Interactive Weather Map New forecast layout! Learn more

10-Day Weather Forecast

Advertisements
Track Severe Weather on mobile